Time;durP1;ratioP1;P1;durP2;ratioP2;P2;SDS_P1;SDS_P2;PMS_P1;PMS_P2;Temp;Humidity;BMP_temperature;BMP_pressure;BME280_temperature;BME280_humidity;BME280_pressure;Samples;Min_cycle;Max_cycle;Signal;HPM_P1;HPM_P2
2021/06/23 00:00:29;;;;;;;1.30;0.93;;;24.80;50.10;;;28.46;34.44;101577.75;5153743;27;20420;-50
2021/06/23 00:02:55;;;;;;;0.88;0.68;;;24.80;50.10;;;28.41;34.40;101562.00;5153943;27;20396;-53
2021/06/23 00:05:23;;;;;;;0.80;0.80;;;24.80;50.10;;;28.45;34.55;101578.72;5153765;27;20076;-52
2021/06/23 00:07:50;;;;;;;0.80;0.70;;;24.80;50.10;;;28.41;34.38;101574.59;5153528;27;20112;-50
2021/06/23 00:10:16;;;;;;;0.90;0.77;;;24.80;50.20;;;28.42;34.30;101582.53;5153682;27;20142;-52
2021/06/23 00:12:42;;;;;;;1.08;0.90;;;24.80;50.20;;;28.41;34.53;101582.66;5153473;27;20046;-51
2021/06/23 00:15:13;;;;;;;1.77;0.90;;;24.80;50.20;;;28.38;34.33;101572.16;5153607;27;20096;-54
2021/06/23 00:17:39;;;;;;;1.92;0.80;;;24.80;50.20;;;28.42;34.41;101574.47;5153572;27;20122;-51
2021/06/23 00:20:06;;;;;;;0.70;0.68;;;24.80;50.20;;;28.41;34.37;101586.19;5153645;27;20049;-51
2021/06/23 00:22:33;;;;;;;0.70;0.70;;;24.80;50.20;;;28.38;34.38;101588.28;5153526;27;20422;-51
2021/06/23 00:24:59;;;;;;;1.23;0.70;;;24.80;50.20;;;28.38;34.17;101583.75;5136659;27;20043;-54
2021/06/23 00:27:25;;;;;;;0.70;0.70;;;24.80;50.20;;;28.38;34.56;101577.53;5157066;27;20090;-55
2021/06/23 00:29:51;;;;;;;1.00;0.82;;;24.70;50.20;;;28.35;34.52;101577.78;5157412;27;20046;-48
2021/06/23 00:32:20;;;;;;;0.85;0.80;;;24.70;50.20;;;28.37;34.57;101581.22;5138451;27;20050;-52
2021/06/23 00:34:46;;;;;;;0.70;0.70;;;24.70;50.20;;;28.35;34.35;101572.41;5156907;27;20384;-53
2021/06/23 00:37:12;;;;;;;1.13;0.77;;;24.70;50.20;;;28.31;34.55;101563.75;5138716;27;20494;-54
2021/06/23 00:39:38;;;;;;;0.68;0.50;;;24.70;50.20;;;28.32;34.36;101572.66;5156785;27;20042;-51
2021/06/23 00:42:08;;;;;;;0.60;0.60;;;24.70;50.30;;;28.32;34.25;101567.28;5138186;27;20491;-52
2021/06/23 00:44:34;;;;;;;0.70;0.70;;;24.70;50.30;;;28.34;34.35;101563.50;5138221;27;20114;-51
2021/06/23 00:47:00;;;;;;;1.08;0.95;;;24.70;50.30;;;28.32;34.49;101552.00;5121268;27;20480;-53
2021/06/23 00:49:32;;;;;;;1.38;0.90;;;24.70;50.30;;;28.31;34.51;101558.38;5137897;27;20511;-50
2021/06/23 00:52:27;;;;;;;0.70;0.70;;;24.70;50.30;;;28.34;34.52;101566.19;5129222;27;20094;-50
2021/06/23 00:55:01;;;;;;;0.70;0.68;;;24.70;50.30;;;28.30;34.57;101553.09;5122390;27;20107;-49
2021/06/23 00:57:31;;;;;;;0.70;0.70;;;24.70;50.30;;;28.30;34.23;101558.50;5137610;27;20050;-52
2021/06/23 00:59:57;;;;;;;1.27;1.00;;;24.70;50.30;;;28.31;34.45;101568.28;5137643;27;20076;-50
2021/06/23 01:02:24;;;;;;;0.77;0.77;;;24.70;50.40;;;28.30;34.49;101569.25;5120943;27;20396;-54
2021/06/23 01:04:52;;;;;;;1.00;0.90;;;24.70;50.30;;;28.27;34.71;101565.00;5137848;27;20047;-50
2021/06/23 01:07:20;;;;;;;0.90;0.85;;;24.70;50.40;;;28.27;34.32;101563.16;5120642;27;20050;-50
2021/06/23 01:09:55;;;;;;;0.75;0.75;;;24.70;50.40;;;28.28;34.54;101566.69;5135993;27;20142;-51
2021/06/23 01:13:17;;;;;;;0.90;0.82;;;24.70;50.40;;;28.27;34.57;101576.59;5121288;27;20043;-50
2021/06/23 01:15:47;;;;;;;1.00;0.70;;;24.70;50.90;;;28.24;34.58;101576.00;5137672;27;20096;-51
2021/06/23 01:18:14;;;;;;;0.70;0.70;;;24.60;50.30;;;28.24;34.51;101570.63;5156108;27;20054;-51
2021/06/23 01:20:43;;;;;;;0.68;0.65;;;24.60;50.40;;;28.22;34.51;101565.34;5156214;27;20051;-50
2021/06/23 01:23:11;;;;;;;0.82;0.75;;;24.70;50.40;;;28.24;34.25;101559.84;5120319;27;20039;-51
2021/06/23 01:25:38;;;;;;;0.82;0.73;;;24.60;50.30;;;28.24;34.69;101559.84;5156471;27;20039;-50
2021/06/23 01:28:04;;;;;;;0.70;0.70;;;24.60;50.40;;;28.24;34.59;101566.09;5137660;27;20488;-54
2021/06/23 01:30:37;;;;;;;0.70;0.70;;;24.60;50.40;;;28.23;34.42;101563.50;5137445;27;20137;-51
2021/06/23 01:33:18;;;;;;;0.80;0.80;;;24.60;50.40;;;28.25;34.45;101561.53;5136929;27;20496;-52
2021/06/23 01:35:47;;;;;;;0.98;0.80;;;24.60;50.40;;;28.22;34.46;101565.34;5137324;27;20330;-50
2021/06/23 01:38:14;;;;;;;0.88;0.63;;;24.60;50.40;;;28.20;34.32;101548.50;5155057;27;20058;-51
2021/06/23 01:40:41;;;;;;;0.82;0.80;;;24.60;50.40;;;28.22;34.70;101553.75;5156415;27;20421;-48
2021/06/23 01:43:11;;;;;;;0.65;0.65;;;24.60;50.40;;;28.20;34.77;101556.56;5156131;27;20046;-51
2021/06/23 01:45:38;;;;;;;1.60;0.73;;;24.60;50.40;;;28.20;34.46;101558.38;5137740;27;20046;-51
2021/06/23 01:48:06;;;;;;;0.70;0.70;;;24.60;50.40;;;28.18;34.37;101565.72;5120605;27;20080;-51
2021/06/23 01:50:33;;;;;;;0.70;0.70;;;24.60;50.50;;;28.21;34.57;101574.41;5137639;27;20095;-51
2021/06/23 01:53:01;;;;;;;0.85;0.70;;;24.60;50.50;;;28.20;34.46;101575.41;5155918;27;20143;-54
2021/06/23 01:55:28;;;;;;;0.50;0.50;;;24.60;50.40;;;28.18;34.55;101581.88;5156026;27;20539;-50
2021/06/23 01:58:07;;;;;;;0.60;0.60;;;24.60;50.40;;;28.17;34.34;101574.78;5155630;27;20050;-50
2021/06/23 02:00:46;;;;;;;1.23;0.85;;;24.60;50.50;;;28.17;34.68;101581.03;5136964;27;20043;-53
2021/06/23 02:03:18;;;;;;;0.63;0.63;;;24.60;50.50;;;28.18;34.37;101582.72;5155918;27;20043;-47
2021/06/23 02:06:01;;;;;;;0.73;0.70;;;24.50;50.40;;;28.17;34.73;101580.16;5134442;27;20075;-53
2021/06/23 02:08:53;;;;;;;1.25;0.90;;;24.60;50.40;;;28.16;34.66;101587.38;5136742;27;20046;-51
2021/06/23 02:11:39;;;;;;;0.85;0.85;;;24.50;50.40;;;28.16;34.49;101589.22;5119538;27;20051;-48
2021/06/23 02:14:39;;;;;;;0.60;0.60;;;24.50;50.40;;;28.13;34.69;101598.38;5135255;27;20084;-54
2021/06/23 02:17:32;;;;;;;0.60;0.60;;;24.50;50.40;;;28.18;34.33;101598.00;5151241;27;20050;-51
2021/06/23 02:20:26;;;;;;;0.57;0.57;;;24.50;50.40;;;28.12;34.54;101593.09;5136971;27;20038;-53
2021/06/23 02:22:52;;;;;;;1.30;0.70;;;24.50;50.40;;;28.15;34.63;101606.31;5119744;27;20130;-52
2021/06/23 02:25:26;;;;;;;1.15;0.77;;;24.50;50.40;;;28.14;34.48;101610.84;5120883;27;20038;-49
2021/06/23 02:28:18;;;;;;;0.70;0.70;;;24.50;50.50;;;28.16;34.54;101605.34;5152042;27;20054;-48
2021/06/23 02:30:45;;;;;;;0.70;0.70;;;24.50;50.40;;;28.12;34.41;101599.38;5136481;27;20118;-49
2021/06/23 02:33:12;;;;;;;0.85;0.80;;;24.50;50.40;;;28.14;34.69;101599.25;5154956;27;20047;-49
2021/06/23 02:35:41;;;;;;;0.65;0.65;;;24.50;50.50;;;28.12;34.52;101598.47;5137108;27;20079;-49
2021/06/23 02:38:25;;;;;;;0.60;0.60;;;24.50;50.50;;;28.10;34.49;101604.00;5136417;27;20125;-50
2021/06/23 02:40:54;;;;;;;0.63;0.63;;;24.50;50.50;;;28.10;34.58;101606.69;5119382;27;20171;-48
2021/06/23 02:43:20;;;;;;;0.50;0.50;;;24.50;50.50;;;28.09;34.45;101604.97;5136313;27;20043;-50
2021/06/23 02:45:47;;;;;;;0.90;0.60;;;24.50;50.50;;;28.12;34.81;101609.25;5119179;27;20069;-48
2021/06/23 02:48:16;;;;;;;0.68;0.68;;;24.50;50.50;;;28.09;34.56;101607.66;5136012;27;20043;-52
2021/06/23 02:51:25;;;;;;;0.95;0.80;;;24.50;50.50;;;28.11;34.72;101603.03;5122240;27;20031;-49
2021/06/23 02:53:56;;;;;;;0.60;0.60;;;24.50;50.50;;;28.11;34.45;101603.03;5134858;27;20090;-47
2021/06/23 02:56:27;;;;;;;1.00;0.82;;;24.50;50.50;;;28.11;34.49;101610.25;5134751;27;20382;-51
2021/06/23 02:58:54;;;;;;;0.80;0.63;;;24.50;50.50;;;28.09;34.80;101616.59;5134365;27;20492;-50
2021/06/23 03:01:21;;;;;;;0.60;0.60;;;24.50;50.50;;;28.08;34.77;101617.59;5134045;27;20051;-51
2021/06/23 03:03:52;;;;;;;0.90;0.60;;;24.50;50.60;;;28.10;34.31;101622.84;5136933;27;20039;-50
2021/06/23 03:06:23;;;;;;;0.80;0.80;;;24.50;50.50;;;28.07;34.41;101628.44;5136656;27;20043;-51
2021/06/23 03:08:51;;;;;;;1.07;0.70;;;24.50;50.50;;;28.09;34.41;101626.50;5154781;27;20042;-46
2021/06/23 03:11:38;;;;;;;0.52;0.50;;;24.40;50.40;;;28.06;34.76;101626.72;5136204;27;20127;-51
2021/06/23 03:14:15;;;;;;;0.90;0.70;;;24.50;50.50;;;28.08;34.71;101633.72;5119276;27;20035;-46
2021/06/23 03:16:47;;;;;;;0.77;0.60;;;24.50;50.50;;;28.03;34.77;101627.84;5135111;27;20066;-51
2021/06/23 03:19:15;;;;;;;0.65;0.65;;;24.40;50.50;;;28.07;34.60;101640.06;5135043;27;20055;-51
2021/06/23 03:21:42;;;;;;;0.77;0.70;;;24.40;50.40;;;28.07;34.56;101644.59;5154229;27;20054;-51
2021/06/23 03:24:07;;;;;;;0.70;0.70;;;24.40;50.50;;;28.04;34.75;101642.97;5136060;27;20483;-50
2021/06/23 03:26:34;;;;;;;0.73;0.73;;;24.40;50.40;;;28.04;34.68;101652.88;5134799;27;20043;-50
2021/06/23 03:29:30;;;;;;;0.73;0.70;;;24.40;50.50;;;28.05;34.76;101659.97;5134187;27;20424;-51
2021/06/23 03:31:58;;;;;;;0.70;0.70;;;24.40;50.50;;;28.08;34.76;101667.78;5142594;27;20051;-46
2021/06/23 03:34:28;;;;;;;0.80;0.80;;;24.50;50.50;;;28.06;34.76;101665.22;5134014;27;20039;-50
2021/06/23 03:37:00;;;;;;;1.08;0.75;;;24.40;50.40;;;28.03;34.45;101662.78;5154242;27;20039;-52
2021/06/23 03:39:27;;;;;;;0.60;0.60;;;24.40;50.50;;;28.03;34.70;101668.19;5135801;27;20074;-47
2021/06/23 03:42:03;;;;;;;0.80;0.77;;;24.40;50.50;;;28.03;34.51;101670.00;5135800;27;20047;-51
2021/06/23 03:44:29;;;;;;;0.75;0.63;;;24.40;50.50;;;28.02;34.77;101658.38;5118448;27;20047;-45
2021/06/23 03:46:55;;;;;;;0.77;0.63;;;24.40;50.50;;;28.01;34.43;101664.72;5135638;27;20119;-46
2021/06/23 03:49:23;;;;;;;1.02;0.70;;;24.40;50.50;;;28.00;34.77;101660.34;5136090;27;20086;-47
2021/06/23 03:51:52;;;;;;;0.68;0.68;;;24.40;50.50;;;28.03;34.65;101660.09;5134691;27;20411;-46
2021/06/23 03:54:22;;;;;;;0.50;0.50;;;24.40;50.50;;;28.00;34.60;101663.03;5133902;27;20043;-47
2021/06/23 03:56:52;;;;;;;0.70;0.70;;;24.40;50.50;;;28.03;34.71;101670.00;5135145;27;20047;-49
2021/06/23 03:59:18;;;;;;;1.15;0.63;;;24.40;50.50;;;28.04;34.53;101685.16;5154158;27;20053;-47
2021/06/23 04:01:44;;;;;;;1.05;0.80;;;24.40;50.50;;;28.01;34.49;101672.78;5155839;27;20137;-48
2021/06/23 04:04:12;;;;;;;0.77;0.77;;;24.40;50.50;;;28.02;34.57;101676.34;5138677;27;20057;-48
2021/06/23 04:06:57;;;;;;;0.50;0.50;;;24.40;50.50;;;28.00;34.70;101673.78;5157436;27;20099;-50
2021/06/23 04:09:24;;;;;;;0.60;0.60;;;24.40;50.50;;;28.00;34.55;101670.22;5138697;27;20046;-49
2021/06/23 04:11:57;;;;;;;0.80;0.80;;;24.40;50.50;;;28.01;34.37;101667.41;5139292;27;20409;-50
2021/06/23 04:14:24;;;;;;;0.60;0.60;;;24.40;50.50;;;28.03;34.42;101670.00;5139452;27;20049;-50
2021/06/23 04:16:55;;;;;;;0.60;0.60;;;24.40;50.40;;;28.05;34.54;101673.41;5158114;27;20087;-52
2021/06/23 04:19:23;;;;;;;0.70;0.70;;;24.40;50.40;;;28.02;34.47;101676.34;5157027;27;20100;-49
2021/06/23 04:21:55;;;;;;;1.80;0.65;;;24.40;50.40;;;28.05;34.39;101679.66;5139250;27;20043;-50
2021/06/23 04:24:23;;;;;;;0.85;0.60;;;24.40;50.40;;;28.06;34.47;101675.13;5138524;27;20381;-52
2021/06/23 04:26:50;;;;;;;0.82;0.80;;;24.40;50.30;;;28.05;34.44;101676.09;5157378;27;20483;-48
2021/06/23 04:29:18;;;;;;;0.70;0.52;;;24.40;50.30;;;28.05;34.54;101676.09;5157530;27;20047;-52
2021/06/23 04:31:44;;;;;;;0.77;0.63;;;24.50;50.30;;;28.05;34.48;101668.91;5137285;27;20051;-51
2021/06/23 04:34:13;;;;;;;0.65;0.50;;;24.40;50.20;;;28.09;34.33;101672.19;5136989;27;20138;-52
2021/06/23 04:36:39;;;;;;;0.80;0.50;;;24.50;50.30;;;28.07;34.36;101664.25;5157327;27;20047;-49
2021/06/23 04:39:05;;;;;;;0.70;0.70;;;24.50;50.80;;;28.08;34.31;101660.59;5137628;27;20127;-51
2021/06/23 04:41:37;;;;;;;0.45;0.45;;;24.50;50.20;;;28.10;34.15;101668.53;5137655;27;20050;-52
2021/06/23 04:44:03;;;;;;;0.73;0.63;;;24.50;50.20;;;28.12;34.39;101673.75;5156590;27;20055;-51
2021/06/23 04:46:32;;;;;;;2.03;0.70;;;24.50;50.20;;;28.11;34.61;101664.00;5136044;27;20047;-48
2021/06/23 04:49:00;;;;;;;0.60;0.60;;;24.50;50.10;;;28.10;34.53;101665.84;5136251;27;20109;-52
2021/06/23 04:51:45;;;;;;;0.82;0.60;;;24.50;50.10;;;28.09;34.15;101664.97;5155707;27;20054;-52
2021/06/23 04:54:12;;;;;;;0.65;0.60;;;24.50;50.20;;;28.12;34.41;101680.03;5156490;27;20042;-53
2021/06/23 04:56:38;;;;;;;0.60;0.60;;;24.50;50.70;;;28.11;34.29;101683.66;5136877;27;20138;-52
2021/06/23 04:59:04;;;;;;;0.80;0.70;;;24.50;50.20;;;28.10;34.58;101681.97;5136816;27;20051;-53
2021/06/23 05:01:30;;;;;;;0.77;0.70;;;24.50;50.20;;;28.06;34.25;101672.44;5137820;27;20050;-52
2021/06/23 05:03:56;;;;;;;0.93;0.60;;;24.40;50.10;;;28.08;34.18;101678.53;5156295;27;20047;-50
2021/06/23 05:06:21;;;;;;;0.60;0.60;;;24.50;50.20;;;28.05;34.26;101668.91;5156132;27;20059;-51
2021/06/23 05:08:47;;;;;;;0.70;0.70;;;24.40;50.10;;;28.06;34.33;101675.97;5137605;27;20038;-47
2021/06/23 05:11:13;;;;;;;0.80;0.60;;;24.50;50.20;;;28.07;34.32;101685.75;5137257;27;20057;-48
2021/06/23 05:13:39;;;;;;;0.68;0.68;;;24.40;50.10;;;28.08;34.15;101679.41;5156046;27;20050;-48
2021/06/23 05:16:06;;;;;;;1.00;0.70;;;24.40;50.10;;;28.08;34.48;101686.59;5156204;27;20156;-49
2021/06/23 05:18:34;;;;;;;0.70;0.70;;;24.40;50.10;;;28.06;34.33;101684.03;5156026;27;20047;-47
2021/06/23 05:21:01;;;;;;;1.85;0.82;;;24.40;50.10;;;28.09;34.25;101696.41;5137901;27;20403;-50
2021/06/23 05:23:28;;;;;;;0.73;0.63;;;24.40;50.10;;;28.08;34.18;101697.34;5137622;27;20548;-52
2021/06/23 05:25:54;;;;;;;0.68;0.68;;;24.40;50.10;;;28.07;34.22;101690.28;5137402;27;20396;-50
2021/06/23 05:28:20;;;;;;;0.55;0.55;;;24.50;50.10;;;28.09;34.34;101691.00;5155872;27;20049;-50
2021/06/23 05:30:47;;;;;;;0.50;0.50;;;24.50;50.20;;;28.05;34.29;101682.34;5155785;27;20104;-50
2021/06/23 05:33:12;;;;;;;0.70;0.70;;;24.40;50.10;;;28.08;34.13;101687.47;5155872;27;20038;-48
2021/06/23 05:35:38;;;;;;;0.68;0.68;;;24.40;50.10;;;28.11;34.50;101689.06;5155900;27;20096;-47
2021/06/23 05:38:04;;;;;;;0.85;0.80;;;24.50;50.10;;;28.13;34.47;101689.78;5155904;27;20095;-47
2021/06/23 05:40:30;;;;;;;1.40;0.63;;;24.50;50.00;;;28.14;34.08;101693.34;5155598;27;20051;-46
2021/06/23 05:42:56;;;;;;;1.13;0.70;;;24.50;50.00;;;28.17;34.06;101701.16;5155849;27;20070;-50
2021/06/23 05:45:22;;;;;;;0.55;0.55;;;24.50;49.90;;;28.17;34.18;101693.94;5156119;27;20380;-48
2021/06/23 05:47:48;;;;;;;1.20;0.75;;;24.50;49.90;;;28.17;34.27;101693.94;5155644;27;20506;-45
2021/06/23 05:50:13;;;;;;;0.70;0.70;;;24.50;49.80;;;28.16;34.04;101697.59;5156007;27;20043;-47
2021/06/23 05:52:39;;;;;;;1.40;0.80;;;24.60;49.90;;;28.22;33.94;101705.19;5155798;27;20035;-46
2021/06/23 05:55:06;;;;;;;0.60;0.60;;;24.50;49.80;;;28.21;34.00;101700.78;5155572;27;20496;-45
2021/06/23 05:57:32;;;;;;;0.82;0.63;;;24.50;49.80;;;28.17;33.92;101691.25;5155763;27;20509;-46
2021/06/23 05:59:57;;;;;;;0.82;0.77;;;24.60;49.80;;;28.24;34.01;101705.06;5155589;27;20046;-45
2021/06/23 06:02:23;;;;;;;0.60;0.60;;;24.60;49.80;;;28.23;34.20;101697.97;5155520;27;20039;-53
2021/06/23 06:04:49;;;;;;;1.08;0.98;;;24.60;49.70;;;28.26;33.81;101708.47;5155800;27;20876;-51
2021/06/23 06:07:15;;;;;;;0.80;0.70;;;24.60;49.60;;;28.27;33.83;101702.97;5155266;27;20043;-48
2021/06/23 06:09:41;;;;;;;0.77;0.70;;;24.60;49.60;;;28.30;33.77;101701.03;5155374;27;20095;-47
2021/06/23 06:12:07;;;;;;;0.70;0.70;;;24.70;49.50;;;28.31;33.76;101706.28;5155331;27;20039;-45
2021/06/23 06:14:33;;;;;;;1.08;0.80;;;24.70;49.50;;;28.38;33.74;101712.88;5155252;27;20043;-52
2021/06/23 06:17:00;;;;;;;0.52;0.47;;;24.70;49.40;;;28.43;33.69;101712.50;5155231;27;20068;-48
2021/06/23 06:19:27;;;;;;;1.17;0.70;;;24.80;49.30;;;28.49;33.79;101708.47;5155210;27;20086;-45
2021/06/23 06:21:54;;;;;;;0.60;0.60;;;24.80;49.10;;;28.54;33.53;101704.41;5155497;27;20046;-50
2021/06/23 06:24:21;;;;;;;0.70;0.70;;;24.90;49.00;;;28.58;33.64;101708.59;5154829;27;20057;-48
2021/06/23 06:26:47;;;;;;;0.70;0.70;;;25.00;48.90;;;28.67;33.21;101722.28;5154727;27;20049;-48
2021/06/23 06:29:12;;;;;;;0.68;0.68;;;25.00;48.80;;;28.67;33.45;101712.38;5154670;27;20070;-52
2021/06/23 06:31:38;;;;;;;0.70;0.70;;;25.00;48.80;;;28.68;33.42;101722.16;5155111;27;20116;-50
2021/06/23 06:34:04;;;;;;;1.20;0.70;;;25.00;48.70;;;28.68;33.11;101718.63;5134747;27;20047;-51
2021/06/23 06:36:30;;;;;;;0.80;0.73;;;25.00;48.80;;;28.67;33.17;101728.53;5136169;27;20053;-53
2021/06/23 06:38:56;;;;;;;0.57;0.57;;;24.90;48.80;;;28.66;33.32;101734.88;5154776;27;20133;-53
2021/06/23 06:41:22;;;;;;;1.02;0.88;;;24.90;48.90;;;28.63;33.13;101746.78;5154707;27;20051;-51
2021/06/23 06:43:47;;;;;;;1.15;0.65;;;24.90;48.90;;;28.64;33.16;101753.00;5154690;27;20051;-49
2021/06/23 06:46:13;;;;;;;1.90;0.70;;;24.90;48.90;;;28.64;33.43;101759.22;5154655;27;20488;-49
2021/06/23 06:48:39;;;;;;;0.60;0.60;;;24.90;48.90;;;28.58;33.12;101757.03;5134877;27;20497;-48
2021/06/23 06:51:05;;;;;;;0.88;0.70;;;24.80;48.90;;;28.58;33.46;101754.34;5155068;27;20468;-51
2021/06/23 06:53:31;;;;;;;0.50;0.50;;;24.80;49.00;;;28.57;33.22;101759.88;5154505;27;20047;-52
2021/06/23 06:55:57;;;;;;;0.80;0.70;;;24.80;49.00;;;28.54;33.26;101755.53;5155144;27;20150;-47
2021/06/23 06:58:23;;;;;;;1.00;0.63;;;24.80;49.10;;;28.52;33.12;101752.13;5154861;27;20043;-45
2021/06/23 07:00:48;;;;;;;0.80;0.80;;;24.80;49.10;;;28.53;33.28;101753.81;5154374;27;20125;-48
2021/06/23 07:03:14;;;;;;;0.80;0.80;;;24.80;49.00;;;28.58;33.52;101761.56;5136355;27;20058;-54
2021/06/23 07:05:40;;;;;;;0.93;0.55;;;24.80;49.00;;;28.60;33.34;101756.91;5154516;27;20042;-48
2021/06/23 07:08:06;;;;;;;0.75;0.68;;;24.90;48.90;;;28.68;33.30;101757.13;5154307;27;20086;-51
2021/06/23 07:10:32;;;;;;;0.63;0.63;;;25.00;48.90;;;28.72;33.43;101752.34;5154641;27;20050;-46
2021/06/23 07:12:57;;;;;;;0.63;0.63;;;25.00;48.80;;;28.80;33.13;101744.50;5154568;27;20095;-48
2021/06/23 07:15:23;;;;;;;1.00;0.73;;;25.20;48.70;;;28.91;33.01;101749.03;5154479;27;20039;-51
2021/06/23 07:17:51;;;;;;;0.77;0.70;;;25.20;48.60;;;28.98;32.98;101751.06;5154364;27;20054;-46
2021/06/23 07:20:18;;;;;;;2.35;0.68;;;25.20;48.30;;;29.01;33.05;101744.59;5154067;27;20219;-48
2021/06/23 07:22:44;;;;;;;0.80;0.80;;;25.30;48.20;;;29.04;32.85;101744.34;5154215;27;20484;-47
2021/06/23 07:25:10;;;;;;;0.85;0.77;;;25.30;48.20;;;29.12;32.77;101751.78;5154283;27;20078;-52
2021/06/23 07:27:37;;;;;;;0.80;0.60;;;25.40;48.10;;;29.15;32.56;101755.09;5154095;27;20081;-49
2021/06/23 07:30:04;;;;;;;0.65;0.65;;;25.40;48.10;;;29.15;32.56;101755.09;5153979;27;20066;-48
2021/06/23 07:32:34;;;;;;;0.70;0.70;;;25.40;48.00;;;29.25;32.31;101752.50;5134617;27;20047;-48
2021/06/23 07:37:44;;;;;;;1.20;0.80;;;25.50;47.80;;;29.30;32.49;101746.72;5154061;27;20062;-51
2021/06/23 07:40:11;;;;;;;1.77;0.80;;;25.50;47.80;;;29.27;32.47;101742.47;5153912;27;20388;-45
2021/06/23 07:42:37;;;;;;;0.90;0.70;;;25.40;47.80;;;29.27;32.24;101744.28;5153968;27;20444;-48
2021/06/23 07:45:04;;;;;;;0.82;0.70;;;25.40;47.80;;;29.25;32.42;101746.25;5154001;27;20121;-48
2021/06/23 07:47:33;;;;;;;2.13;1.23;;;25.40;47.90;;;29.28;32.26;101746.84;5153867;27;20058;-48
2021/06/23 07:50:00;;;;;;;1.25;0.85;;;25.50;48.00;;;29.34;32.28;101745.50;5153879;27;20133;-46
2021/06/23 07:52:34;;;;;;;0.60;0.50;;;25.60;48.00;;;29.40;32.05;101747.66;5153807;27;20485;-48
2021/06/23 08:08:45;;;;;;;0.70;0.70;;;25.90;47.30;;;29.70;31.73;101762.19;5153752;27;20068;-50
2021/06/23 08:11:19;;;;;;;0.60;0.57;;;25.80;47.10;;;29.67;31.81;101767.84;5153419;27;20179;-45
2021/06/23 08:13:45;;;;;;;0.93;0.70;;;25.80;47.20;;;29.64;31.94;101763.59;5153857;27;20051;-47
2021/06/23 08:16:11;;;;;;;1.75;0.90;;;25.80;47.30;;;29.59;31.93;101762.25;5134983;27;20103;-47
2021/06/23 08:18:37;;;;;;;0.90;0.60;;;25.80;47.40;;;29.57;31.94;101767.81;5134345;27;20050;-48
2021/06/23 08:21:03;;;;;;;0.68;0.60;;;25.70;47.40;;;29.51;31.71;101766.47;5153352;27;20039;-52
2021/06/23 08:23:29;;;;;;;1.10;0.70;;;25.70;47.40;;;29.52;31.82;101770.88;5153746;27;20055;-47
2021/06/23 08:25:54;;;;;;;0.80;0.70;;;25.70;47.50;;;29.53;32.04;101763.63;5153347;27;20496;-47
2021/06/23 08:28:20;;;;;;;1.08;0.60;;;25.70;47.50;;;29.54;32.10;101770.75;5153280;27;20054;-51
2021/06/23 08:30:46;;;;;;;1.17;0.60;;;25.70;47.50;;;29.58;31.97;101764.09;5153219;27;20076;-52
2021/06/23 08:33:12;;;;;;;0.85;0.73;;;25.80;47.40;;;29.63;31.71;101772.66;5132425;28;20054;-47
2021/06/23 08:35:38;;;;;;;1.00;0.75;;;25.80;47.40;;;29.65;31.65;101767.13;5132853;28;20066;-50
2021/06/23 08:38:04;;;;;;;0.60;0.60;;;25.80;47.30;;;29.67;31.75;101774.13;5132512;28;20407;-51
2021/06/23 08:40:30;;;;;;;1.15;0.88;;;25.80;47.20;;;29.63;31.74;101778.03;5132412;28;20396;-50
2021/06/23 08:42:56;;;;;;;0.95;0.60;;;25.80;47.20;;;29.64;31.79;101773.53;5132393;28;20043;-49
2021/06/23 08:45:22;;;;;;;0.82;0.60;;;25.80;47.20;;;29.67;31.72;101771.41;5132656;27;20436;-46
2021/06/23 08:47:49;;;;;;;0.60;0.60;;;25.80;47.20;;;29.66;31.66;101767.00;5135942;28;20043;-48
2021/06/23 08:50:22;;;;;;;0.70;0.70;;;25.80;47.20;;;29.69;31.93;101772.13;5135844;28;20047;-46
2021/06/23 08:52:48;;;;;;;1.15;0.70;;;25.90;47.20;;;29.71;31.92;101769.31;5136221;28;20046;-47
2021/06/23 08:55:19;;;;;;;1.95;0.82;;;25.90;47.20;;;29.72;31.81;101769.19;5135463;28;20051;-48
2021/06/23 08:57:49;;;;;;;0.60;0.60;;;25.90;47.10;;;29.77;31.67;101776.91;5136250;28;20129;-50
2021/06/23 09:00:16;;;;;;;1.85;0.80;;;26.00;47.10;;;29.79;31.77;101774.94;5136394;28;20092;-50
2021/06/23 09:02:44;;;;;;;0.60;0.60;;;26.00;47.00;;;29.83;31.51;101765.59;5117576;28;20046;-49
2021/06/23 09:05:13;;;;;;;1.27;0.80;;;26.00;47.00;;;29.84;31.45;101778.09;5135600;28;20043;-51
2021/06/23 09:07:39;;;;;;;1.00;0.80;;;26.00;46.90;;;29.87;31.58;101766.16;5115756;28;20461;-50
2021/06/23 09:10:26;;;;;;;0.73;0.73;;;26.00;46.90;;;29.84;31.50;101771.84;5135513;28;20078;-50
2021/06/23 09:13:00;;;;;;;1.05;0.77;;;26.00;46.90;;;29.89;31.59;101766.91;5135845;28;20043;-48
2021/06/23 09:15:51;;;;;;;1.05;0.60;;;26.10;46.80;;;29.90;31.61;101774.88;5135506;28;20400;-54
2021/06/23 09:18:39;;;;;;;1.08;0.75;;;26.10;46.80;;;29.92;31.60;101778.28;5135436;28;20050;-48
2021/06/23 09:21:17;;;;;;;0.60;0.60;;;26.10;46.70;;;29.99;31.41;101791.22;5135512;28;20047;-47
2021/06/23 09:23:58;;;;;;;0.65;0.65;;;26.20;46.70;;;30.01;31.59;101784.72;5135938;28;20126;-47
2021/06/23 09:26:29;;;;;;;2.28;0.88;;;26.20;46.60;;;30.02;31.27;101772.09;5135313;28;20043;-53
2021/06/23 09:29:12;;;;;;;;;;;26.20;46.60;;;30.21;31.15;101782.97;5117422;28;20047;-50
2021/06/23 09:32:01;;;;;;;1.60;0.70;;;26.20;46.50;;;30.09;31.35;101775.97;5135506;28;19915;-50
2021/06/23 09:34:45;;;;;;;0.95;0.80;;;26.30;46.60;;;30.09;31.23;101775.97;5135565;28;20043;-48
2021/06/23 09:37:32;;;;;;;1.63;0.80;;;26.20;46.50;;;30.08;31.26;101775.09;5116773;28;20100;-52
2021/06/23 09:40:17;;;;;;;0.80;0.70;;;26.20;46.50;;;30.06;31.21;101777.06;5135230;28;20051;-51
2021/06/23 09:43:00;;;;;;;0.77;0.73;;;26.30;46.60;;;30.05;31.19;101775.34;5135041;28;20105;-48
2021/06/23 09:45:29;;;;;;;0.90;0.70;;;26.20;46.60;;;30.07;31.22;101775.22;5117401;28;20097;-50
2021/06/23 09:48:08;;;;;;;1.33;0.70;;;26.30;46.60;;;30.06;31.30;101778.94;5135126;28;20481;-53
2021/06/23 09:50:36;;;;;;;0.90;0.82;;;26.20;46.50;;;30.05;31.18;101775.34;5135364;28;20096;-50
2021/06/23 09:53:10;;;;;;;0.75;0.60;;;26.20;46.60;;;30.06;31.29;101781.63;5099747;28;20445;-50
2021/06/23 09:55:41;;;;;;;1.70;0.98;;;26.30;47.20;;;30.07;31.32;101767.13;5116361;28;20576;-46
2021/06/23 09:58:19;;;;;;;1.05;0.70;;;26.30;46.60;;;30.09;31.36;101771.41;5115933;28;20046;-49
2021/06/23 10:01:04;;;;;;;0.60;0.60;;;26.30;46.50;;;30.11;31.14;101766.75;5135164;28;20134;-48
2021/06/23 10:03:38;;;;;;;1.92;0.88;;;26.30;46.40;;;30.14;31.20;101770.16;5134776;28;20096;-48
2021/06/23 10:06:25;;;;;;;1.00;0.80;;;26.30;46.40;;;30.12;31.07;101759.50;5134974;28;20046;-46
2021/06/23 10:09:11;;;;;;;0.60;0.60;;;26.30;46.30;;;30.15;31.24;101758.38;5134768;28;20050;-48
2021/06/23 10:11:37;;;;;;;0.88;0.70;;;26.40;46.40;;;30.20;31.10;101764.22;5134360;28;20062;-46
2021/06/23 10:14:05;;;;;;;2.00;0.93;;;26.40;46.30;;;30.22;30.97;101768.50;5134265;28;20047;-51
2021/06/23 10:16:31;;;;;;;0.77;0.77;;;26.40;46.20;;;30.22;30.93;101757.72;5134179;28;20134;-46
2021/06/23 10:18:57;;;;;;;0.82;0.60;;;26.40;46.20;;;30.24;30.77;101765.69;5134079;28;20047;-51
2021/06/23 10:21:23;;;;;;;0.80;0.60;;;26.40;46.20;;;30.20;30.77;101751.59;5134199;28;20043;-50
2021/06/23 10:23:50;;;;;;;1.95;0.52;;;26.40;46.20;;;30.21;31.00;101760.56;5134714;28;20071;-50
2021/06/23 10:26:18;;;;;;;0.60;0.60;;;26.40;46.20;;;30.21;31.00;101755.16;5134657;28;20540;-45
2021/06/23 10:28:52;;;;;;;0.70;0.70;;;26.50;46.30;;;30.18;30.92;101752.72;5134641;28;20420;-47
2021/06/23 10:31:17;;;;;;;0.85;0.80;;;26.40;46.20;;;30.25;31.16;101759.28;5134638;28;20050;-50
2021/06/23 10:33:43;;;;;;;0.55;0.55;;;26.50;46.20;;;30.27;31.07;101751.91;5134876;28;20455;-47
2021/06/23 10:36:10;;;;;;;2.67;0.82;;;26.50;46.20;;;30.26;30.90;101753.75;5134146;28;20046;-51
2021/06/23 10:38:37;;;;;;;0.80;0.60;;;26.50;46.10;;;30.32;30.75;101765.00;5134313;28;20062;-52
2021/06/23 10:41:04;;;;;;;2.10;0.68;;;26.50;46.10;;;30.33;30.81;101764.00;5134129;28;20047;-49